AFL1012 UUEE-UMKK
Flight info
| Callsign | AFL1012 |
|---|---|
| Flight time | N/A |
| Altitude | 40000 |
| Route | TOKNU3H TOKNU L4 NUDKO T561 ODATI P145 ATLUM DCT PISIS DCT ARANS/N0481F400 DCT PIDIN DCT PISIM DCT PIRUX DCT PIVAX/N0480F410 DCT GARSO DCT AGONA DCT TURIP TURIP3G |
| Aircraft | A359/H-SDE2E3GHIJ3J4J5LM1ORWXY/LB1D1 |
Departure
| Time | 2026-05-01 08:27 |
|---|---|
| Airport | Sheremetyevo International Airport (UUEE) |
Arrival
| Time | N/A |
|---|---|
| Airport | Khrabrovo Airport (UMKK) |
| Time | Latitude | Longitude | Altitude | Speed | Heading |
|---|---|---|---|---|---|
| 2026-05-01 07:55 | 55.98179 | 37.42822 | 645 ft | 0 kts | 345° |
| 2026-05-01 08:17 | 55.98168 | 37.42827 | 645 ft | 4 kts | 346° |
| 2026-05-01 08:17 | 55.98142 | 37.42838 | 647 ft | 4 kts | 351° |
| 2026-05-01 08:17 | 55.98116 | 37.42843 | 648 ft | 4 kts | 3° |
| 2026-05-01 08:18 | 55.98092 | 37.42836 | 647 ft | 4 kts | 31° |
| 2026-05-01 08:18 | 55.98079 | 37.42816 | 647 ft | 0 kts | 75° |
| 2026-05-01 08:21 | 55.98082 | 37.42833 | 648 ft | 4 kts | 75° |
| 2026-05-01 08:22 | 55.98094 | 37.42913 | 646 ft | 9 kts | 75° |
| 2026-05-01 08:22 | 55.98116 | 37.43056 | 645 ft | 14 kts | 75° |
| 2026-05-01 08:22 | 55.98125 | 37.43236 | 645 ft | 15 kts | 115° |
| 2026-05-01 08:22 | 55.98045 | 37.43312 | 645 ft | 14 kts | 162° |
| 2026-05-01 08:23 | 55.97965 | 37.43369 | 645 ft | 7 kts | 129° |
| 2026-05-01 08:23 | 55.97966 | 37.43454 | 645 ft | 13 kts | 80° |
| 2026-05-01 08:23 | 55.97955 | 37.43627 | 645 ft | 11 kts | 134° |
| 2026-05-01 08:23 | 55.97918 | 37.43709 | 645 ft | 18 kts | 95° |
| 2026-05-01 08:24 | 55.97947 | 37.43947 | 645 ft | 15 kts | 85° |
| 2026-05-01 08:24 | 55.97918 | 37.44028 | 645 ft | 0 kts | 153° |
| 2026-05-01 08:25 | 55.97916 | 37.44030 | 645 ft | 2 kts | 153° |
| 2026-05-01 08:25 | 55.97857 | 37.44064 | 646 ft | 15 kts | 165° |
| 2026-05-01 08:25 | 55.97797 | 37.44061 | 646 ft | 8 kts | 213° |
| 2026-05-01 08:26 | 55.97773 | 37.43979 | 646 ft | 8 kts | 248° |
| 2026-05-01 08:26 | 55.97766 | 37.43937 | 647 ft | 0 kts | 255° |
| 2026-05-01 08:26 | 55.97763 | 37.43915 | 647 ft | 14 kts | 256° |
| 2026-05-01 08:26 | 55.97673 | 37.43299 | 646 ft | 87 kts | 255° |
| 2026-05-01 08:27 | 55.97462 | 37.41909 | 644 ft | 145 kts | 255° |
| 2026-05-01 08:27 | 55.97159 | 37.39960 | 1002 ft | 167 kts | 254° |
| 2026-05-01 08:27 | 55.96843 | 37.37965 | 1769 ft | 168 kts | 254° |
| 2026-05-01 08:27 | 55.96497 | 37.35854 | 2227 ft | 189 kts | 254° |
| 2026-05-01 08:28 | 55.96106 | 37.33465 | 2666 ft | 209 kts | 255° |
| 2026-05-01 08:28 | 55.95710 | 37.30830 | 3143 ft | 230 kts | 256° |
| 2026-05-01 08:28 | 55.95270 | 37.28019 | 3637 ft | 246 kts | 255° |
| 2026-05-01 08:28 | 55.94772 | 37.24998 | 4175 ft | 260 kts | 255° |
| 2026-05-01 08:29 | 55.94266 | 37.21812 | 4808 ft | 272 kts | 256° |
| 2026-05-01 08:29 | 55.93755 | 37.18501 | 5527 ft | 277 kts | 256° |
| 2026-05-01 08:29 | 55.93254 | 37.15290 | 6775 ft | 262 kts | 256° |
| 2026-05-01 08:29 | 55.92767 | 37.12227 | 7869 ft | 254 kts | 257° |
| 2026-05-01 08:30 | 55.92287 | 37.09117 | 8404 ft | 269 kts | 257° |
| 2026-05-01 08:30 | 55.91805 | 37.05823 | 9009 ft | 278 kts | 260° |
| 2026-05-01 08:30 | 55.91731 | 37.02388 | 9713 ft | 278 kts | 283° |
| 2026-05-01 08:30 | 55.92452 | 36.99255 | 10114 ft | 274 kts | 309° |
| 2026-05-01 08:31 | 55.93815 | 36.96957 | 10226 ft | 271 kts | 327° |
| 2026-05-01 08:31 | 55.95377 | 36.95056 | 10190 ft | 272 kts | 328° |
| 2026-05-01 08:31 | 55.96951 | 36.93183 | 10177 ft | 272 kts | 328° |
| 2026-05-01 08:31 | 55.98528 | 36.91287 | 10184 ft | 273 kts | 328° |
| 2026-05-01 08:32 | 56.00205 | 36.89750 | 10202 ft | 271 kts | 341° |
| 2026-05-01 08:32 | 56.02003 | 36.88637 | 10374 ft | 280 kts | 343° |
| 2026-05-01 08:32 | 56.03900 | 36.87531 | 10830 ft | 291 kts | 343° |
| 2026-05-01 08:32 | 56.05831 | 36.86390 | 11575 ft | 294 kts | 343° |
| 2026-05-01 08:33 | 56.07768 | 36.85156 | 12305 ft | 298 kts | 339° |
| 2026-05-01 08:33 | 56.09552 | 36.83199 | 13020 ft | 305 kts | 324° |
| 2026-05-01 08:33 | 56.11130 | 36.80669 | 13719 ft | 310 kts | 321° |
| 2026-05-01 08:33 | 56.12707 | 36.77997 | 14352 ft | 314 kts | 321° |
| 2026-05-01 08:34 | 56.14306 | 36.75291 | 14974 ft | 317 kts | 322° |
| 2026-05-01 08:34 | 56.15917 | 36.72574 | 15590 ft | 320 kts | 322° |
| 2026-05-01 08:34 | 56.17547 | 36.69830 | 16057 ft | 321 kts | 322° |
| 2026-05-01 08:34 | 56.19179 | 36.67086 | 16184 ft | 322 kts | 323° |
| 2026-05-01 08:35 | 56.20818 | 36.64332 | 16179 ft | 323 kts | 323° |
| 2026-05-01 08:35 | 56.22464 | 36.61568 | 16182 ft | 324 kts | 323° |
| 2026-05-01 08:35 | 56.24127 | 36.58778 | 16300 ft | 333 kts | 322° |
| 2026-05-01 08:35 | 56.25857 | 36.55866 | 16548 ft | 347 kts | 322° |
| 2026-05-01 08:36 | 56.27651 | 36.52836 | 16794 ft | 360 kts | 322° |
| 2026-05-01 08:36 | 56.29504 | 36.49701 | 17066 ft | 370 kts | 322° |
| 2026-05-01 08:36 | 56.31392 | 36.46497 | 17499 ft | 376 kts | 322° |
| 2026-05-01 08:36 | 56.33277 | 36.43290 | 18002 ft | 379 kts | 322° |
| 2026-05-01 08:37 | 56.35216 | 36.39952 | 18503 ft | 383 kts | 321° |
| 2026-05-01 08:37 | 56.36980 | 36.36362 | 18951 ft | 390 kts | 315° |
| 2026-05-01 08:37 | 56.38638 | 36.32466 | 19419 ft | 394 kts | 313° |
| 2026-05-01 08:37 | 56.40236 | 36.28425 | 19860 ft | 397 kts | 311° |
| 2026-05-01 08:38 | 56.41812 | 36.24314 | 20300 ft | 400 kts | 311° |
| 2026-05-01 08:38 | 56.43392 | 36.20162 | 20746 ft | 402 kts | 311° |
| 2026-05-01 08:38 | 56.44984 | 36.15994 | 21190 ft | 404 kts | 311° |
| 2026-05-01 08:38 | 56.46596 | 36.11807 | 21610 ft | 406 kts | 312° |
| 2026-05-01 08:39 | 56.48219 | 36.07611 | 22047 ft | 408 kts | 312° |
| 2026-05-01 08:39 | 56.49853 | 36.03400 | 22459 ft | 410 kts | 312° |
| 2026-05-01 08:39 | 56.51498 | 35.99165 | 22893 ft | 412 kts | 312° |
| 2026-05-01 08:40 | 56.53768 | 35.93316 | 23470 ft | 415 kts | 312° |
| 2026-05-01 08:40 | 56.55433 | 35.89016 | 23870 ft | 418 kts | 312° |
| 2026-05-01 08:40 | 56.57105 | 35.84686 | 24220 ft | 420 kts | 312° |
| 2026-05-01 08:41 | 56.58780 | 35.80341 | 24582 ft | 421 kts | 313° |
| 2026-05-01 08:41 | 56.60460 | 35.75971 | 24937 ft | 423 kts | 313° |
| 2026-05-01 08:41 | 56.62145 | 35.71579 | 25289 ft | 425 kts | 313° |
| 2026-05-01 08:41 | 56.63833 | 35.67174 | 25644 ft | 426 kts | 313° |
| 2026-05-01 08:42 | 56.65532 | 35.62739 | 26006 ft | 428 kts | 313° |
| 2026-05-01 08:42 | 56.67211 | 35.58341 | 26397 ft | 430 kts | 313° |
| 2026-05-01 08:42 | 56.68936 | 35.53799 | 26775 ft | 432 kts | 313° |
| 2026-05-01 08:42 | 56.70622 | 35.49345 | 27163 ft | 433 kts | 314° |
| 2026-05-01 08:43 | 56.72335 | 35.44812 | 27556 ft | 435 kts | 314° |
| 2026-05-01 08:43 | 56.74053 | 35.40258 | 27996 ft | 437 kts | 314° |
| 2026-05-01 08:43 | 56.75780 | 35.35674 | 28419 ft | 439 kts | 314° |
| 2026-05-01 08:43 | 56.77511 | 35.31074 | 28867 ft | 441 kts | 315° |
| 2026-05-01 08:44 | 56.79245 | 35.26460 | 29284 ft | 443 kts | 315° |
| 2026-05-01 08:44 | 56.80990 | 35.21808 | 29716 ft | 445 kts | 315° |
| 2026-05-01 08:44 | 56.82737 | 35.17143 | 30136 ft | 447 kts | 316° |
| 2026-05-01 08:44 | 56.84499 | 35.12430 | 30488 ft | 449 kts | 315° |
| 2026-05-01 08:45 | 56.86263 | 35.07706 | 30764 ft | 452 kts | 315° |
| 2026-05-01 08:45 | 56.88042 | 35.02929 | 31027 ft | 456 kts | 315° |
| 2026-05-01 08:45 | 56.89922 | 34.98276 | 31294 ft | 451 kts | 320° |
| 2026-05-01 08:45 | 56.92067 | 34.94175 | 31559 ft | 442 kts | 328° |
| 2026-05-01 08:46 | 56.94462 | 34.90715 | 31816 ft | 437 kts | 333° |
| 2026-05-01 08:46 | 56.96962 | 34.87544 | 32060 ft | 438 kts | 335° |
| 2026-05-01 08:46 | 56.99470 | 34.84498 | 32302 ft | 439 kts | 335° |
| 2026-05-01 08:46 | 57.02040 | 34.81443 | 32534 ft | 441 kts | 335° |
| 2026-05-01 08:47 | 57.04625 | 34.78384 | 32852 ft | 442 kts | 335° |
| 2026-05-01 08:47 | 57.07208 | 34.75318 | 33177 ft | 442 kts | 335° |
| 2026-05-01 08:47 | 57.09794 | 34.72230 | 33509 ft | 443 kts | 335° |
| 2026-05-01 08:47 | 57.12373 | 34.69135 | 33854 ft | 443 kts | 335° |
| 2026-05-01 08:48 | 57.14948 | 34.66030 | 34180 ft | 443 kts | 335° |
| 2026-05-01 08:48 | 57.17526 | 34.62911 | 34463 ft | 443 kts | 334° |
| 2026-05-01 08:48 | 57.20105 | 34.59784 | 34711 ft | 444 kts | 334° |
| 2026-05-01 08:48 | 57.22695 | 34.56641 | 34951 ft | 446 kts | 334° |
| 2026-05-01 08:49 | 57.25286 | 34.53492 | 35180 ft | 447 kts | 334° |
| 2026-05-01 08:49 | 57.27889 | 34.50321 | 35428 ft | 448 kts | 333° |
| 2026-05-01 08:49 | 57.30493 | 34.47145 | 35679 ft | 449 kts | 333° |
| 2026-05-01 08:49 | 57.33103 | 34.43955 | 35910 ft | 450 kts | 333° |
| 2026-05-01 08:50 | 57.35718 | 34.40756 | 36139 ft | 451 kts | 333° |
| 2026-05-01 08:50 | 57.38340 | 34.37540 | 36385 ft | 452 kts | 333° |
| 2026-05-01 08:50 | 57.40942 | 34.34344 | 36598 ft | 454 kts | 332° |
| 2026-05-01 08:50 | 57.43576 | 34.31102 | 36819 ft | 455 kts | 332° |
| 2026-05-01 08:51 | 57.46214 | 34.27849 | 37051 ft | 456 kts | 332° |
| 2026-05-01 08:51 | 57.48869 | 34.24571 | 37271 ft | 457 kts | 332° |
| 2026-05-01 08:51 | 57.51525 | 34.21285 | 37499 ft | 458 kts | 332° |
| 2026-05-01 08:51 | 57.54181 | 34.17994 | 37737 ft | 459 kts | 331° |
| 2026-05-01 08:52 | 57.56842 | 34.14690 | 37943 ft | 460 kts | 331° |
| 2026-05-01 08:52 | 57.59510 | 34.11371 | 38167 ft | 461 kts | 331° |
| 2026-05-01 08:52 | 57.62183 | 34.08041 | 38378 ft | 462 kts | 331° |
| 2026-05-01 08:52 | 57.64861 | 34.04699 | 38581 ft | 463 kts | 330° |
| 2026-05-01 08:53 | 57.67542 | 34.01346 | 38780 ft | 464 kts | 330° |
| 2026-05-01 08:53 | 57.70192 | 33.98027 | 38959 ft | 465 kts | 330° |
| 2026-05-01 08:53 | 57.72880 | 33.94654 | 39134 ft | 465 kts | 330° |
| 2026-05-01 08:53 | 57.75571 | 33.91269 | 39314 ft | 465 kts | 330° |
| 2026-05-01 08:54 | 57.78262 | 33.87880 | 39436 ft | 466 kts | 330° |
| 2026-05-01 08:54 | 57.80963 | 33.84473 | 39509 ft | 469 kts | 330° |
| 2026-05-01 08:54 | 57.86215 | 33.77060 | 39633 ft | 479 kts | 320° |
| 2026-05-01 08:55 | 57.88446 | 33.72401 | 39889 ft | 481 kts | 311° |
| 2026-05-01 08:55 | 57.90406 | 33.67296 | 40133 ft | 481 kts | 309° |
| 2026-05-01 08:55 | 57.94116 | 33.56816 | 40205 ft | 481 kts | 307° |
| 2026-05-01 08:56 | 57.97709 | 33.46288 | 40204 ft | 481 kts | 307° |
| 2026-05-01 08:56 | 58.01324 | 33.35691 | 40206 ft | 480 kts | 307° |
| 2026-05-01 08:57 | 58.04942 | 33.25111 | 40207 ft | 480 kts | 308° |
| 2026-05-01 08:57 | 58.08559 | 33.14512 | 40218 ft | 479 kts | 308° |
| 2026-05-01 08:58 | 58.12177 | 33.03915 | 40215 ft | 479 kts | 308° |
| 2026-05-01 08:58 | 58.15789 | 32.93335 | 40206 ft | 478 kts | 308° |
| 2026-05-01 08:59 | 58.19387 | 32.82744 | 40208 ft | 478 kts | 308° |
| 2026-05-01 08:59 | 58.22370 | 32.73925 | 40206 ft | 477 kts | 308° |
| 2026-05-01 09:00 | 58.25941 | 32.63320 | 40206 ft | 476 kts | 308° |
| 2026-05-01 09:00 | 58.30075 | 32.50984 | 40209 ft | 476 kts | 308° |
| 2026-05-01 09:01 | 58.33046 | 32.42081 | 40211 ft | 475 kts | 307° |
| 2026-05-01 09:01 | 58.36579 | 32.31449 | 40208 ft | 475 kts | 307° |
| 2026-05-01 09:02 | 58.40080 | 32.20865 | 40212 ft | 474 kts | 307° |
| 2026-05-01 09:02 | 58.43588 | 32.10213 | 40206 ft | 474 kts | 307° |
| 2026-05-01 09:03 | 58.47081 | 31.99557 | 40201 ft | 473 kts | 307° |
| 2026-05-01 09:03 | 58.50562 | 31.88891 | 40209 ft | 472 kts | 307° |
| 2026-05-01 09:04 | 58.54035 | 31.78201 | 40203 ft | 472 kts | 307° |
| 2026-05-01 09:04 | 58.57468 | 31.67588 | 40202 ft | 471 kts | 307° |
| 2026-05-01 09:05 | 58.60912 | 31.56890 | 40208 ft | 470 kts | 307° |
| 2026-05-01 09:05 | 58.64334 | 31.46214 | 40199 ft | 470 kts | 307° |
| 2026-05-01 09:06 | 58.67751 | 31.35532 | 40194 ft | 469 kts | 306° |
| 2026-05-01 09:06 | 58.71153 | 31.24830 | 40193 ft | 468 kts | 306° |
| 2026-05-01 09:07 | 58.74538 | 31.14132 | 40190 ft | 468 kts | 306° |
| 2026-05-01 09:07 | 58.77914 | 31.03417 | 40191 ft | 467 kts | 306° |
| 2026-05-01 09:08 | 58.81271 | 30.92778 | 40186 ft | 466 kts | 306° |
| 2026-05-01 09:08 | 58.84657 | 30.82092 | 40188 ft | 466 kts | 306° |
| 2026-05-01 09:09 | 58.88031 | 30.71391 | 40188 ft | 466 kts | 306° |
| 2026-05-01 09:09 | 58.91391 | 30.60681 | 40188 ft | 466 kts | 306° |
| 2026-05-01 09:10 | 58.94710 | 30.49986 | 40187 ft | 466 kts | 305° |
| 2026-05-01 09:10 | 58.98038 | 30.39194 | 40187 ft | 466 kts | 305° |
| 2026-05-01 09:11 | 59.01355 | 30.28401 | 40186 ft | 466 kts | 305° |
| 2026-05-01 09:11 | 59.04671 | 30.17574 | 40186 ft | 465 kts | 305° |
| 2026-05-01 09:12 | 59.07969 | 30.06758 | 40184 ft | 465 kts | 305° |
| 2026-05-01 09:12 | 59.11242 | 29.95970 | 40185 ft | 465 kts | 304° |
| 2026-05-01 09:13 | 59.14514 | 29.85136 | 40183 ft | 465 kts | 304° |
| 2026-05-01 09:13 | 59.17763 | 29.74242 | 40180 ft | 464 kts | 304° |
| 2026-05-01 09:14 | 59.20997 | 29.63308 | 40179 ft | 464 kts | 304° |
| 2026-05-01 09:14 | 59.24221 | 29.52369 | 40180 ft | 464 kts | 304° |
| 2026-05-01 09:15 | 59.27436 | 29.41417 | 40181 ft | 464 kts | 304° |
| 2026-05-01 09:15 | 59.30645 | 29.30438 | 40185 ft | 464 kts | 303° |
| 2026-05-01 09:16 | 59.33841 | 29.19469 | 40182 ft | 464 kts | 303° |
| 2026-05-01 09:17 | 59.38602 | 29.02959 | 40188 ft | 464 kts | 303° |
| 2026-05-01 09:17 | 59.44777 | 28.81371 | 40193 ft | 465 kts | 303° |